LESO

San Sebastian Airport

Hondarribia, Spain
TAF LESO 252300Z 2600/2624 29005KT 9999 SCT020 BKN035 TX17/2614Z TN12/2603Z PROB40 TEMPO 2600/2608 3000 -RADZ BKN010 TEMPO 2612/2618 01010KT
Issued Valid From Valid To
Apr-25 @ 23:00 UTC
(5 hours ago)
Apr-26 @ 00:00 UTC
(4 hours ago)
Apr-27 @ 00:00 UTC
(in 20 hours)
Apr-26 @ 00:00 to Apr-27 @ 00:00
TAF LESO 252300Z 2600/2624 29005KT 9999 SCT020 BKN035 TX17/2614Z TN12/2603Z
Wind Visibility Clouds
290° at 5 knots 10,000+ meters
  • Scattered at 2,000' AGL
  • Broken at 3,500' AGL
Temporary  (Probability 40%) Apr-26 @ 00:00 to Apr-26 @ 08:00
PROB40 TEMPO 2600/2608 3000 -RADZ BKN010
Visibility Clouds Conditions
2,993 meters
  • Broken at 1,000' AGL
  • Light Rain
  • Light Drizzle
Temporary Apr-26 @ 12:00 to Apr-26 @ 18:00
TEMPO 2612/2618 01010KT
Wind
10° at 10 knots
TAF LESO 252300Z 2600/2624 29005KT 9999 SCT020 BKN035 TX17/2614Z TN12/2603Z PROB40 TEMPO 2600/2608 3000 -RADZ BKN010 TEMPO 2612/2618 01010KT
Issued Apr-25 @ 23:00 UTC
(5 hours ago)
Valid From Apr-26 @ 00:00 UTC
(4 hours ago)
Valid To Apr-27 @ 00:00 UTC
(in 20 hours)
Apr-26 @ 00:00 - Apr-27 @ 00:00
Wind Visibility
290° at 5 knots 10,000+ meters
Clouds
  • Scattered at 2,000' AGL
  • Broken at 3,500' AGL
Probability 40% Temporary Apr-26 @ 00:00 - Apr-26 @ 08:00
Clouds
  • Broken at 1,000' AGL
Conditions
  • Light Rain
  • Light Drizzle
Temporary Apr-26 @ 12:00 - Apr-26 @ 18:00
Wind
10° at 10 knots